Time;durP1;ratioP1;P1;durP2;ratioP2;P2;SDS_P1;SDS_P2;PMS_P1;PMS_P2;Temp;Humidity;BMP_temperature;BMP_pressure;BME280_temperature;BME280_humidity;BME280_pressure;Samples;Min_cycle;Max_cycle;Signal;HPM_P1;HPM_P2
2021/10/30 00:01:03;;;;;;;;;21.50;20.00;;;;;14.95;64.35;99839.03;5087102;27;45761;-63
2021/10/30 00:03:29;;;;;;;;;17.25;17.25;;;;;14.93;64.11;99835.59;5093294;27;45232;-63
2021/10/30 00:05:55;;;;;;;;;16.00;15.25;;;;;14.96;63.99;99835.47;5092961;27;45450;-62
2021/10/30 00:08:20;;;;;;;;;18.25;16.75;;;;;14.95;64.00;99826.69;5086609;27;45230;-62
2021/10/30 00:10:46;;;;;;;;;19.00;18.50;;;;;14.94;64.41;99826.75;5086825;27;45323;-62
2021/10/30 00:13:11;;;;;;;;;17.00;17.00;;;;;14.90;64.16;99812.78;5093109;27;46515;-61
2021/10/30 00:15:37;;;;;;;;;21.25;18.50;;;;;14.95;64.21;99813.47;5091526;27;45341;-61
2021/10/30 00:18:02;;;;;;;;;19.75;17.75;;;;;14.93;64.13;99820.59;5086479;27;45518;-61
2021/10/30 00:20:28;;;;;;;;;18.25;17.50;;;;;14.97;64.06;99804.56;5085128;27;45375;-62
2021/10/30 00:22:54;;;;;;;;;15.00;14.50;;;;;14.95;64.11;99805.53;5086081;27;46067;-62
2021/10/30 00:25:19;;;;;;;;;17.00;15.50;;;;;14.94;63.95;99798.53;5092345;27;45482;-62
2021/10/30 00:27:44;;;;;;;;;15.25;15.25;;;;;14.98;64.46;99803.66;5093370;27;45355;-62
2021/10/30 00:30:10;;;;;;;;;14.75;13.50;;;;;14.97;64.21;99794.00;5092945;27;45296;-62
2021/10/30 00:32:36;;;;;;;;;18.00;17.00;;;;;14.97;64.02;99797.50;5093059;27;45910;-62
2021/10/30 00:35:02;;;;;;;;;16.00;14.75;;;;;14.98;64.17;99803.66;5092939;27;45334;-62
2021/10/30 00:37:27;;;;;;;;;17.00;16.25;;;;;14.97;64.22;99799.28;5085230;27;45321;-62
2021/10/30 00:39:53;;;;;;;;;16.50;16.50;;;;;14.97;64.18;99780.75;5086274;27;45498;-62
2021/10/30 00:42:18;;;;;;;;;16.00;15.00;;;;;14.95;64.70;99776.44;5092666;27;45318;-61
2021/10/30 00:44:44;;;;;;;;;17.50;15.50;;;;;14.98;64.27;99785.13;5091500;27;45277;-62
2021/10/30 00:47:10;;;;;;;;;11.75;11.50;;;;;14.99;64.24;99793.00;5085039;27;45237;-62
2021/10/30 00:49:35;;;;;;;;;15.50;15.50;;;;;14.97;64.33;99772.81;5099786;27;45385;-62
2021/10/30 00:52:02;;;;;;;;;15.50;15.50;;;;;15.01;64.75;99779.72;5086008;27;46312;-62
2021/10/30 00:54:28;;;;;;;;;16.50;16.50;;;;;15.01;64.57;99774.41;5090742;27;45359;-62
2021/10/30 00:56:57;;;;;;;;;14.25;14.00;;;;;15.00;64.20;99765.59;5097354;27;45339;-62
2021/10/30 00:59:22;;;;;;;;;17.25;13.50;;;;;15.00;64.71;99762.97;5093942;27;45453;-62
2021/10/30 01:01:49;;;;;;;;;13.25;13.00;;;;;14.94;64.84;99755.31;5088689;27;46049;-62
2021/10/30 01:04:16;;;;;;;;;13.75;13.75;;;;;15.00;64.73;99752.38;5090275;27;45421;-61
2021/10/30 01:06:47;;;;;;;;;13.75;12.50;;;;;14.99;64.50;99749.81;5096253;27;45221;-62
2021/10/30 01:09:13;;;;;;;;;12.75;12.50;;;;;14.97;64.97;99752.53;5096164;27;45204;-62
2021/10/30 01:11:41;;;;;;;;;15.25;14.00;;;;;15.00;65.04;99746.25;5089518;27;45224;-61
2021/10/30 01:14:07;;;;;;;;;14.25;13.00;;;;;14.99;64.78;99740.06;5089177;27;45318;-62
2021/10/30 01:16:32;;;;;;;;;13.00;12.50;;;;;15.02;64.56;99739.06;5094794;27;45169;-63
2021/10/30 01:19:00;;;;;;;;;15.75;13.25;;;;;15.03;64.48;99728.44;5095828;27;45287;-62
2021/10/30 01:21:30;;;;;;;;;15.25;15.25;;;;;15.03;64.50;99741.66;5090485;27;46238;-62
2021/10/30 01:23:57;;;;;;;;;14.25;13.50;;;;;15.04;64.60;99735.44;5088583;27;45467;-62
2021/10/30 01:26:22;;;;;;;;;10.50;10.50;;;;;15.03;64.46;99730.22;5102622;27;45314;-62
2021/10/30 01:28:49;;;;;;;;;14.00;13.75;;;;;15.00;65.10;99730.38;5088748;27;45448;-62
2021/10/30 01:31:15;;;;;;;;;13.50;13.50;;;;;15.03;64.83;99735.50;5093214;27;46132;-62
2021/10/30 01:33:42;;;;;;;;;13.75;12.25;;;;;15.01;65.20;99734.72;5095508;27;45289;-62
2021/10/30 01:36:13;;;;;;;;;12.50;11.50;;;;;15.02;64.91;99729.38;5091500;27;45213;-62
2021/10/30 01:38:39;;;;;;;;;12.25;12.00;;;;;15.01;64.66;99726.81;5088650;27;45589;-62
2021/10/30 01:41:04;;;;;;;;;12.75;12.00;;;;;15.01;65.29;99727.66;5092171;27;45652;-62
2021/10/30 01:43:30;;;;;;;;;15.00;14.50;;;;;15.00;65.08;99714.50;5095325;27;45324;-62
2021/10/30 01:45:56;;;;;;;;;13.75;13.00;;;;;14.99;65.01;99718.91;5092277;27;45338;-62
2021/10/30 01:48:28;;;;;;;;;15.25;15.25;;;;;15.01;64.83;99713.56;5099667;27;45343;-62
2021/10/30 01:50:54;;;;;;;;;19.75;17.75;;;;;15.00;65.33;99707.41;5093022;27;46131;-62
2021/10/30 01:53:19;;;;;;;;;15.75;15.50;;;;;14.98;65.31;99701.34;5095202;27;45399;-62
2021/10/30 01:55:46;;;;;;;;;14.00;13.50;;;;;15.00;65.28;99690.69;5092473;27;45523;-62
2021/10/30 01:58:12;;;;;;;;;14.25;12.75;;;;;15.00;64.89;99690.69;5083985;27;45402;-62
2021/10/30 02:00:38;;;;;;;;;16.75;16.00;;;;;14.99;64.91;99678.38;5081307;27;45278;-62
2021/10/30 02:03:04;;;;;;;;;20.75;18.75;;;;;14.98;65.26;99674.03;5095040;27;45267;-63
2021/10/30 02:05:29;;;;;;;;;15.25;13.75;;;;;14.95;65.42;99660.03;5090776;27;45264;-62
2021/10/30 02:07:55;;;;;;;;;16.00;13.25;;;;;14.97;65.05;99659.06;5088376;27;45383;-62
2021/10/30 02:10:20;;;;;;;;;17.75;15.25;;;;;14.96;64.79;99650.28;5091733;27;46114;-62
2021/10/30 02:12:45;;;;;;;;;17.00;16.00;;;;;14.95;64.83;99644.16;5094968;27;45222;-62
2021/10/30 02:15:11;;;;;;;;;16.00;15.75;;;;;14.94;64.82;99641.56;5091877;27;45963;-62
2021/10/30 02:17:37;;;;;;;;;14.25;13.75;;;;;14.93;65.11;99630.16;5086630;27;45341;-62
2021/10/30 02:20:05;;;;;;;;;14.00;14.00;;;;;14.96;65.27;99626.50;5091317;27;46272;-62
2021/10/30 02:22:31;;;;;;;;;14.25;14.25;;;;;14.93;65.05;99624.84;5094749;27;45313;-62
2021/10/30 02:24:56;;;;;;;;;17.75;16.25;;;;;14.97;64.98;99622.03;5092169;27;45387;-62
2021/10/30 02:27:22;;;;;;;;;18.00;15.00;;;;;14.95;65.00;99615.06;5097397;27;45313;-62
2021/10/30 02:29:47;;;;;;;;;17.50;15.00;;;;;14.99;64.87;99610.44;5079908;27;47130;-62
2021/10/30 02:32:13;;;;;;;;;14.75;14.00;;;;;15.00;64.97;99608.69;5085066;27;45235;-62
2021/10/30 02:34:40;;;;;;;;;16.00;14.75;;;;;15.01;64.96;99610.41;5089539;27;45391;-62
2021/10/30 02:37:06;;;;;;;;;17.00;14.50;;;;;15.01;64.84;99608.59;5094574;27;45534;-62
2021/10/30 02:39:31;;;;;;;;;14.25;14.25;;;;;14.98;64.68;99598.19;5092301;27;45176;-62
2021/10/30 02:41:56;;;;;;;;;14.00;13.75;;;;;15.00;64.76;99604.22;5087563;27;45258;-62
2021/10/30 02:44:22;;;;;;;;;11.50;11.50;;;;;15.03;64.67;99598.81;5088583;27;45487;-62
2021/10/30 02:46:47;;;;;;;;;15.75;14.00;;;;;14.99;65.21;99588.44;5097789;27;45233;-62
2021/10/30 02:49:12;;;;;;;;;12.25;12.25;;;;;15.02;64.95;99590.91;5113676;27;46243;-62
2021/10/30 02:51:38;;;;;;;;;15.00;13.00;;;;;15.02;64.71;99586.50;5087683;27;45384;-62
2021/10/30 02:54:04;;;;;;;;;15.50;13.50;;;;;15.01;64.90;99574.22;5093275;27;45310;-62
2021/10/30 02:56:29;;;;;;;;;16.25;13.75;;;;;15.02;65.22;99564.47;5096030;27;45516;-62
2021/10/30 02:58:55;;;;;;;;;13.00;12.00;;;;;15.03;65.15;99567.06;5088595;27;46428;-62
2021/10/30 03:01:20;;;;;;;;;16.50;13.25;;;;;15.04;64.63;99570.53;5087276;27;45247;-62
2021/10/30 03:03:45;;;;;;;;;13.25;12.00;;;;;15.04;65.21;99563.47;5093323;27;45312;-62
2021/10/30 03:06:11;;;;;;;;;13.50;13.25;;;;;15.04;65.04;99549.38;5094352;27;45445;-62
2021/10/30 03:08:36;;;;;;;;;14.25;12.50;;;;;15.01;65.22;99545.09;5088642;27;45297;-62
2021/10/30 03:11:02;;;;;;;;;13.00;13.00;;;;;15.02;64.53;99546.81;5087394;27;45340;-62
2021/10/30 03:13:29;;;;;;;;;11.25;11.25;;;;;15.04;64.61;99536.16;5093489;27;45274;-62
2021/10/30 03:15:55;;;;;;;;;15.75;13.50;;;;;15.04;64.83;99521.16;5093635;27;45386;-62
2021/10/30 03:18:21;;;;;;;;;13.50;13.00;;;;;14.99;65.00;99509.09;5087171;27;48155;-62
2021/10/30 03:20:47;;;;;;;;;14.50;13.00;;;;;15.03;64.72;99508.84;5087251;27;45588;-62
2021/10/30 03:23:12;;;;;;;;;14.00;14.00;;;;;15.04;65.07;99501.75;5100888;27;45382;-62
2021/10/30 03:25:38;;;;;;;;;15.00;13.75;;;;;15.04;64.65;99496.47;5095402;27;45346;-62
2021/10/30 03:28:03;;;;;;;;;14.50;12.00;;;;;15.03;64.61;99494.75;5092305;27;46198;-62
2021/10/30 03:30:29;;;;;;;;;13.50;13.00;;;;;15.04;65.06;99500.00;5093724;27;45409;-62
2021/10/30 03:32:55;;;;;;;;;15.50;15.50;;;;;15.00;65.06;99490.47;5088964;27;45341;-62
2021/10/30 03:35:20;;;;;;;;;15.25;13.75;;;;;15.04;64.63;99493.81;5086782;27;45542;-62
2021/10/30 03:37:46;;;;;;;;;14.75;14.25;;;;;15.04;64.48;99494.69;5091939;27;45946;-62
2021/10/30 03:40:12;;;;;;;;;14.25;14.25;;;;;15.00;64.96;99495.78;5081751;27;45311;-62
2021/10/30 03:42:38;;;;;;;;;17.00;16.50;;;;;15.04;64.87;99483.25;5091975;27;45319;-62
2021/10/30 03:45:06;;;;;;;;;13.00;13.00;;;;;15.02;64.76;99474.53;5093385;27;45713;-62
2021/10/30 03:47:31;;;;;;;;;12.50;12.50;;;;;15.04;64.52;99480.59;5096794;27;46655;-62
2021/10/30 03:49:57;;;;;;;;;14.00;13.00;;;;;15.04;64.88;99470.00;5105110;27;45297;-62
2021/10/30 03:52:23;;;;;;;;;13.00;10.00;;;;;15.04;64.74;99477.94;5088328;27;45744;-62
2021/10/30 03:54:48;;;;;;;;;12.75;12.50;;;;;15.04;64.74;99480.59;5088049;27;45493;-62
2021/10/30 03:57:13;;;;;;;;;11.00;11.00;;;;;15.02;64.87;99467.47;5091216;27;46035;-62
2021/10/30 03:59:39;;;;;;;;;14.75;13.00;;;;;15.03;64.74;99468.31;5092239;27;45312;-62
2021/10/30 04:02:04;;;;;;;;;13.75;13.50;;;;;15.03;64.50;99481.53;5087781;27;45497;-62
2021/10/30 04:04:31;;;;;;;;;12.50;11.00;;;;;14.99;64.50;99464.13;5086657;27;45481;-62
2021/10/30 04:06:57;;;;;;;;;13.25;11.75;;;;;15.00;64.75;99471.97;5091781;27;45378;-62
2021/10/30 04:09:24;;;;;;;;;10.75;10.25;;;;;14.97;64.51;99476.56;5093285;27;45295;-62
2021/10/30 04:11:50;;;;;;;;;12.00;12.00;;;;;14.95;65.07;99472.22;5087246;27;45621;-62
2021/10/30 04:14:16;;;;;;;;;11.50;11.00;;;;;14.96;64.61;99473.06;5084557;27;45174;-62
2021/10/30 04:16:41;;;;;;;;;13.25;11.75;;;;;14.94;64.72;99467.00;5087768;27;47250;-62
2021/10/30 04:19:06;;;;;;;;;16.00;13.00;;;;;14.93;64.96;99482.03;5086302;27;45380;-62
2021/10/30 04:21:32;;;;;;;;;11.25;11.25;;;;;14.91;64.68;99480.41;5091748;27;45297;-62
2021/10/30 04:23:58;;;;;;;;;10.00;10.00;;;;;14.89;64.97;99464.63;5093203;27;45231;-62
2021/10/30 04:26:25;;;;;;;;;14.25;11.25;;;;;14.91;64.58;99473.31;5086634;27;46204;-62
2021/10/30 04:28:50;;;;;;;;;6.25;6.00;;;;;14.91;65.07;99468.00;5093989;27;45366;-62
2021/10/30 04:31:21;;;;;;;;;11.00;11.00;;;;;14.91;64.54;99477.75;5090586;27;45656;-62
2021/10/30 04:33:47;;;;;;;;;9.00;9.00;;;;;14.90;64.63;99476.03;5089899;27;45445;-62
2021/10/30 04:36:16;;;;;;;;;8.50;8.00;;;;;14.87;64.91;99474.41;5103304;27;45440;-62
2021/10/30 04:38:42;;;;;;;;;13.25;11.50;;;;;14.83;65.31;99467.56;5089727;27;45429;-62
2021/10/30 04:41:08;;;;;;;;;9.50;9.50;;;;;14.84;64.95;99471.06;5093344;27;45260;-62
2021/10/30 04:43:33;;;;;;;;;9.50;7.00;;;;;14.84;65.13;99471.06;5096338;27;45333;-62
2021/10/30 04:45:58;;;;;;;;;15.50;9.75;;;;;14.81;65.36;99471.22;5092028;27;47146;-62
2021/10/30 04:48:24;;;;;;;;;9.25;9.00;;;;;14.79;65.39;99473.94;5101158;27;45261;-61
2021/10/30 04:50:49;;;;;;;;;8.00;8.00;;;;;14.71;65.58;99470.84;5095109;27;45248;-62
2021/10/30 04:53:15;;;;;;;;;12.25;10.75;;;;;14.71;65.66;99470.84;5096493;27;45613;-61
2021/10/30 04:55:40;;;;;;;;;11.00;10.00;;;;;14.70;65.22;99479.72;5091293;27;47135;-62
2021/10/30 04:58:06;;;;;;;;;8.50;8.00;;;;;14.66;65.53;99467.59;5089490;27;45161;-62
2021/10/30 05:00:31;;;;;;;;;8.00;8.00;;;;;14.60;65.69;99455.50;5094841;27;45667;-62
2021/10/30 05:02:56;;;;;;;;;9.00;9.00;;;;;14.59;65.17;99454.66;5096343;27;45215;-62
2021/10/30 05:05:22;;;;;;;;;11.00;8.25;;;;;14.59;65.26;99452.00;5090666;27;46119;-62
2021/10/30 05:07:47;;;;;;;;;10.50;10.00;;;;;14.58;65.70;99444.16;5089345;27;45277;-62
2021/10/30 05:10:13;;;;;;;;;8.00;8.00;;;;;14.59;65.34;99446.72;5095440;27;45709;-62
2021/10/30 05:12:38;;;;;;;;;8.50;8.25;;;;;14.57;65.35;99445.94;5094886;27;45423;-62
2021/10/30 05:15:04;;;;;;;;;8.00;8.00;;;;;14.56;65.42;99436.28;5090244;27;46214;-62
2021/10/30 05:17:30;;;;;;;;;8.00;6.75;;;;;14.53;65.88;99439.09;5088714;27;45348;-62
2021/10/30 05:19:55;;;;;;;;;7.75;6.00;;;;;14.53;65.60;99436.47;5093881;27;45449;-62
2021/10/30 05:22:21;;;;;;;;;8.50;8.25;;;;;14.52;65.46;99440.03;5094414;27;45435;-62
2021/10/30 05:24:46;;;;;;;;;9.50;9.00;;;;;14.51;65.81;99440.13;5089953;27;46053;-62
2021/10/30 05:27:11;;;;;;;;;8.25;8.25;;;;;14.50;65.66;99435.75;5101423;27;45325;-62
2021/10/30 05:29:37;;;;;;;;;8.00;8.00;;;;;14.51;65.82;99432.19;5090475;27;45295;-62
2021/10/30 05:32:02;;;;;;;;;8.00;7.50;;;;;14.50;66.28;99439.25;5088803;27;45393;-62
2021/10/30 05:34:28;;;;;;;;;7.75;7.75;;;;;14.51;65.98;99435.66;5093251;27;46199;-62
2021/10/30 05:36:54;;;;;;;;;11.25;8.50;;;;;14.51;65.70;99440.97;5095680;27;45323;-62
2021/10/30 05:39:21;;;;;;;;;7.50;7.50;;;;;14.49;65.77;99428.75;5089022;27;45483;-63
2021/10/30 05:41:47;;;;;;;;;7.00;6.00;;;;;14.50;65.99;99433.97;5088646;27;45296;-62
2021/10/30 05:44:12;;;;;;;;;7.00;7.00;;;;;14.51;66.45;99433.03;5094227;27;46396;-62
2021/10/30 05:46:39;;;;;;;;;7.75;6.75;;;;;14.51;66.14;99426.91;5095544;27;45271;-62
2021/10/30 05:49:06;;;;;;;;;7.50;7.50;;;;;14.51;66.29;99435.66;5102768;27;45427;-62
2021/10/30 05:51:32;;;;;;;;;7.50;7.50;;;;;14.51;66.00;99433.03;5088449;27;45465;-62
2021/10/30 05:53:58;;;;;;;;;7.75;6.75;;;;;14.52;66.44;99429.47;5094717;27;46160;-62
2021/10/30 05:56:23;;;;;;;;;5.75;5.75;;;;;14.54;66.07;99426.72;5096308;27;45242;-61
2021/10/30 05:58:49;;;;;;;;;7.00;7.00;;;;;14.54;66.67;99435.53;5088496;27;45166;-61
2021/10/30 06:01:14;;;;;;;;;6.00;5.00;;;;;14.54;66.38;99435.53;5088329;27;45560;-62
2021/10/30 06:03:39;;;;;;;;;7.00;7.00;;;;;14.54;66.92;99432.00;5093829;27;46439;-62
2021/10/30 06:06:05;;;;;;;;;6.50;6.50;;;;;14.54;66.33;99430.25;5095300;27;45172;-62
2021/10/30 06:08:30;;;;;;;;;9.50;8.25;;;;;14.57;66.49;99426.59;5089966;27;45440;-62
2021/10/30 06:10:56;;;;;;;;;10.25;9.50;;;;;14.55;66.41;99425.81;5088366;27;45262;-62
2021/10/30 06:13:21;;;;;;;;;5.00;5.00;;;;;14.59;66.46;99425.56;5093279;27;45173;-62
2021/10/30 06:15:47;;;;;;;;;9.00;7.50;;;;;14.61;66.77;99422.84;5094827;27;45216;-62
2021/10/30 06:18:12;;;;;;;;;7.00;7.00;;;;;14.63;66.88;99424.47;5088686;27;45233;-62
2021/10/30 06:20:38;;;;;;;;;6.75;5.00;;;;;14.65;66.62;99419.13;5088172;27;45207;-62
2021/10/30 06:23:03;;;;;;;;;7.75;7.75;;;;;14.65;66.74;99413.84;5091673;27;46726;-62
2021/10/30 06:25:30;;;;;;;;;7.75;7.00;;;;;14.64;66.62;99422.69;5096866;27;45264;-62
2021/10/30 06:27:56;;;;;;;;;7.50;7.50;;;;;14.67;66.55;99432.28;5092642;27;45450;-62
2021/10/30 06:30:21;;;;;;;;;9.50;8.50;;;;;14.67;66.70;99437.59;5094515;27;45407;-62
2021/10/30 06:32:47;;;;;;;;;6.75;5.50;;;;;14.66;66.67;99423.47;5081134;27;45473;-62
2021/10/30 06:35:12;;;;;;;;;9.00;6.50;;;;;14.69;66.66;99427.75;5094615;27;45349;-62
2021/10/30 06:37:39;;;;;;;;;5.25;5.25;;;;;14.67;67.12;99421.72;5090802;27;45620;-62
2021/10/30 06:40:09;;;;;;;;;6.75;6.00;;;;;14.71;67.09;99426.75;5087774;27;45311;-62
2021/10/30 06:42:35;;;;;;;;;3.50;3.50;;;;;14.72;66.81;99428.47;5089592;27;46208;-62
2021/10/30 06:45:00;;;;;;;;;7.00;5.75;;;;;14.74;66.68;99426.59;5084333;27;45409;-62
2021/10/30 06:47:26;;;;;;;;;7.75;6.75;;;;;14.75;66.82;99425.66;5097701;27;45331;-62
2021/10/30 06:49:53;;;;;;;;;6.50;5.00;;;;;14.75;67.02;99422.16;5101279;27;45288;-62
2021/10/30 06:52:18;;;;;;;;;7.50;6.00;;;;;14.73;66.98;99424.88;5087802;27;46198;-62
2021/10/30 06:54:44;;;;;;;;;5.75;5.75;;;;;14.79;67.24;99421.03;5088919;27;45214;-61
2021/10/30 06:57:09;;;;;;;;;5.00;5.00;;;;;14.79;66.90;99413.13;5101305;27;45296;-62
2021/10/30 06:59:35;;;;;;;;;5.50;5.50;;;;;14.81;66.71;99418.34;5087586;27;45176;-65
2021/10/30 07:02:04;;;;;;;;;6.00;6.00;;;;;14.81;66.64;99419.19;5093615;27;47115;-62
2021/10/30 07:04:31;;;;;;;;;6.50;6.50;;;;;14.81;67.00;99408.59;5094203;27;45324;-62
2021/10/30 07:06:57;;;;;;;;;5.00;5.00;;;;;14.82;66.98;99409.44;5088736;27;45332;-62
2021/10/30 07:09:22;;;;;;;;;5.75;4.25;;;;;14.76;66.83;99408.00;5087284;27;45441;-62
2021/10/30 07:11:47;;;;;;;;;6.00;6.00;;;;;14.81;67.22;99403.31;5093412;27;46192;-61
2021/10/30 07:14:13;;;;;;;;;6.75;6.75;;;;;14.82;67.15;99409.44;5094010;27;45437;-62
2021/10/30 07:16:38;;;;;;;;;5.00;4.50;;;;;14.84;67.15;99397.88;5088113;27;45264;-62
2021/10/30 07:19:04;;;;;;;;;5.50;5.50;;;;;14.85;66.85;99407.50;5087063;27;45227;-62
2021/10/30 07:21:29;;;;;;;;;4.00;4.00;;;;;14.84;67.06;99403.19;5100940;27;45264;-62
2021/10/30 07:23:55;;;;;;;;;5.75;4.75;;;;;14.86;66.61;99405.72;5087262;27;45217;-62
2021/10/30 07:26:21;;;;;;;;;6.00;6.00;;;;;14.88;67.04;99407.34;5100973;27;45416;-63
2021/10/30 07:28:46;;;;;;;;;6.00;6.00;;;;;14.89;66.76;99410.84;5086930;27;45222;-62
2021/10/30 07:31:12;;;;;;;;;6.75;6.75;;;;;14.91;67.04;99403.69;5092517;27;45250;-62
2021/10/30 07:33:37;;;;;;;;;5.00;5.00;;;;;14.92;66.63;99413.34;5095106;27;45258;-62
2021/10/30 07:36:03;;;;;;;;;7.75;5.50;;;;;14.94;67.01;99403.50;5100918;27;45543;-62
2021/10/30 07:38:28;;;;;;;;;4.25;4.25;;;;;14.97;67.21;99391.91;5086814;27;45476;-62
2021/10/30 07:40:54;;;;;;;;;6.00;6.00;;;;;15.00;67.02;99399.69;5091249;27;46838;-62
2021/10/30 07:43:19;;;;;;;;;6.00;3.75;;;;;15.02;67.16;99414.56;5093564;27;45410;-62
2021/10/30 07:45:44;;;;;;;;;5.50;4.50;;;;;15.02;66.89;99414.56;5087758;27;45564;-63
2021/10/30 07:48:10;;;;;;;;;5.00;3.75;;;;;15.04;67.00;99410.03;5099183;27;45370;-63
2021/10/30 07:50:35;;;;;;;;;6.75;6.75;;;;;15.11;66.66;99418.50;5094052;27;46163;-62
2021/10/30 07:53:02;;;;;;;;;4.50;4.50;;;;;15.13;67.22;99426.34;5093234;27;45416;-63
2021/10/30 07:55:28;;;;;;;;;4.25;2.00;;;;;15.11;67.17;99427.28;5088402;27;45460;-62
2021/10/30 07:57:53;;;;;;;;;4.50;4.50;;;;;15.17;66.97;99419.94;5085442;27;45310;-61
2021/10/30 08:00:19;;;;;;;;;4.25;4.25;;;;;15.18;67.06;99419.88;5093120;27;45261;-61
2021/10/30 08:02:44;;;;;;;;;9.00;6.25;;;;;15.18;67.04;99433.09;5093960;27;45168;-48
2021/10/30 08:05:13;;;;;;;;;7.00;5.50;;;;;15.21;67.36;99432.94;5090163;27;45319;-60
2021/10/30 08:07:39;;;;;;;;;7.75;6.00;;;;;15.26;66.95;99444.13;5103592;27;45612;-59
2021/10/30 08:10:06;;;;;;;;;6.00;6.00;;;;;15.30;66.87;99443.97;5090296;27;45494;-63
2021/10/30 08:12:33;;;;;;;;;6.00;6.00;;;;;15.30;66.90;99450.09;5089763;27;45378;-64
2021/10/30 08:15:00;;;;;;;;;4.50;4.50;;;;;15.33;67.33;99452.56;5096096;27;45544;-60
2021/10/30 08:17:25;;;;;;;;;6.00;6.00;;;;;15.37;66.95;99463.84;5096723;27;45243;-60
2021/10/30 08:19:51;;;;;;;;;5.50;4.75;;;;;15.35;66.96;99466.56;5090882;27;45156;-61
2021/10/30 08:22:17;;;;;;;;;6.25;5.50;;;;;15.37;67.01;99463.84;5088881;27;45316;-63
2021/10/30 08:24:45;;;;;;;;;6.00;5.00;;;;;15.42;67.30;99469.72;5089515;27;45259;-60
2021/10/30 08:27:11;;;;;;;;;7.25;6.00;;;;;15.45;66.82;99464.28;5102301;27;45335;-58
2021/10/30 08:29:36;;;;;;;;;6.25;6.00;;;;;15.47;67.13;99456.25;5090835;27;46079;-57
2021/10/30 08:32:02;;;;;;;;;5.00;5.00;;;;;15.51;66.87;99466.59;5089547;27;45487;-59
2021/10/30 08:34:28;;;;;;;;;6.50;6.50;;;;;15.54;67.06;99462.94;5094487;27;45317;-58
2021/10/30 08:36:54;;;;;;;;;7.25;6.00;;;;;15.55;66.85;99472.59;5095327;27;45415;-60
2021/10/30 08:39:20;;;;;;;;;8.25;6.75;;;;;15.62;67.04;99470.44;5090693;27;46076;-57
2021/10/30 08:41:45;;;;;;;;;5.75;5.50;;;;;15.61;66.87;99464.31;5089548;27;45247;-58
2021/10/30 08:44:11;;;;;;;;;8.75;5.75;;;;;15.68;67.06;99462.16;5095025;27;45436;-59
2021/10/30 08:46:37;;;;;;;;;7.00;5.75;;;;;15.72;66.85;99461.03;5095937;27;45467;-58
2021/10/30 08:49:05;;;;;;;;;6.00;6.00;;;;;15.76;66.84;99459.97;5103144;27;46084;-58
2021/10/30 08:51:32;;;;;;;;;5.50;5.50;;;;;15.82;66.71;99474.66;5089178;27;45374;-59
2021/10/30 08:53:57;;;;;;;;;8.25;8.25;;;;;15.81;67.05;99465.84;5096082;27;45354;-59
2021/10/30 08:56:24;;;;;;;;;10.25;9.25;;;;;15.86;66.61;99463.81;5084514;27;45555;-59
2021/10/30 08:58:50;;;;;;;;;12.00;10.50;;;;;15.90;66.63;99477.75;5076696;28;47366;-59
2021/10/30 09:01:16;;;;;;;;;9.50;9.50;;;;;15.92;66.70;99476.72;5095669;27;45177;-58
2021/10/30 09:03:42;;;;;;;;;8.75;7.25;;;;;15.96;66.78;99472.09;5090632;27;45304;-58
2021/10/30 09:06:08;;;;;;;;;8.50;7.00;;;;;15.99;66.57;99481.69;5088822;27;45441;-59
2021/10/30 09:08:35;;;;;;;;;8.75;7.50;;;;;15.98;66.86;99485.25;5093264;27;47455;-60
2021/10/30 09:11:09;;;;;;;;;5.00;5.00;;;;;15.96;67.00;99472.09;5095821;27;45292;-58
2021/10/30 09:13:36;;;;;;;;;5.00;4.50;;;;;15.98;66.78;99472.84;5091204;27;45361;-61
2021/10/30 09:16:02;;;;;;;;;6.25;6.00;;;;;15.99;66.87;99484.31;5088698;27;45574;-59
2021/10/30 09:18:40;;;;;;;;;8.00;7.50;;;;;15.96;66.73;99472.09;5092772;27;46014;-60
2021/10/30 09:21:26;;;;;;;;;8.75;7.50;;;;;15.96;67.06;99471.25;5095567;27;45464;-62
2021/10/30 09:23:51;;;;;;;;;5.50;5.50;;;;;15.96;66.83;99474.75;5095717;27;45290;-61
2021/10/30 09:26:22;;;;;;;;;4.50;4.00;;;;;15.95;67.09;99473.03;5097067;27;45185;-62
2021/10/30 09:28:54;;;;;;;;;7.25;7.25;;;;;15.94;66.70;99473.97;5088847;27;47154;-61
2021/10/30 09:31:25;;;;;;;;;9.25;8.75;;;;;15.93;66.87;99481.06;5092759;27;45372;-61
2021/10/30 09:33:56;;;;;;;;;9.50;8.50;;;;;15.89;66.85;99474.22;5095761;27;45161;-59
2021/10/30 09:36:27;;;;;;;;;8.25;7.50;;;;;15.89;66.89;99479.53;5092909;27;45334;-60
2021/10/30 09:38:54;;;;;;;;;6.50;6.00;;;;;15.87;66.86;99460.25;5088338;27;45189;-59
2021/10/30 09:41:35;;;;;;;;;9.25;9.25;;;;;15.90;66.89;99467.16;5090424;27;45361;-58
2021/10/30 09:44:14;;;;;;;;;6.50;6.00;;;;;15.90;66.88;99472.47;5089243;27;45334;-59
2021/10/30 09:46:46;;;;;;;;;9.50;8.25;;;;;15.89;66.47;99468.94;5088000;27;45425;-60
2021/10/30 09:49:13;;;;;;;;;10.75;9.75;;;;;15.89;66.68;99463.63;5101885;27;46130;-58
2021/10/30 09:51:39;;;;;;;;;11.50;10.25;;;;;15.92;66.77;99479.38;5088353;27;45374;-59
2021/10/30 09:54:06;;;;;;;;;7.25;7.25;;;;;15.87;67.11;99468.19;5093783;27;45263;-60
2021/10/30 09:56:50;;;;;;;;;9.00;9.00;;;;;15.90;66.66;99470.66;5096561;27;45437;-60
2021/10/30 09:59:16;;;;;;;;;10.25;8.25;;;;;15.90;67.05;99473.28;5092582;27;46560;-59
2021/10/30 10:01:50;;;;;;;;;6.75;6.75;;;;;15.92;67.01;99476.72;5087723;27;45414;-60
2021/10/30 10:04:19;;;;;;;;;8.75;5.75;;;;;15.92;67.09;99467.91;5089205;27;45392;-60
2021/10/30 10:06:49;;;;;;;;;6.25;6.25;;;;;15.96;67.16;99468.59;5093761;27;45924;-61
2021/10/30 10:09:19;;;;;;;;;7.25;5.50;;;;;15.96;66.94;99477.41;5094914;27;45526;-61
2021/10/30 10:11:49;;;;;;;;;7.50;7.00;;;;;15.97;67.02;99476.44;5089238;27;45569;-61
2021/10/30 10:14:16;;;;;;;;;5.00;5.00;;;;;15.96;67.26;99472.09;5100288;27;45357;-61
2021/10/30 10:16:50;;;;;;;;;5.00;3.75;;;;;15.95;67.15;99472.16;5080820;27;45405;-60
2021/10/30 10:19:16;;;;;;;;;7.00;5.25;;;;;15.99;67.06;99485.16;5094555;27;46911;-61
2021/10/30 10:21:43;;;;;;;;;5.75;5.75;;;;;16.01;67.23;99485.06;5090774;27;45250;-60
2021/10/30 10:24:17;;;;;;;;;7.00;6.75;;;;;16.01;67.37;99493.91;5087989;27;45332;-60
2021/10/30 10:26:46;;;;;;;;;7.50;7.50;;;;;15.99;67.07;99493.13;5100638;27;45604;-60
2021/10/30 10:29:14;;;;;;;;;8.50;7.75;;;;;15.99;67.07;99486.97;5087634;27;46135;-62
2021/10/30 10:31:50;;;;;;;;;9.75;9.00;;;;;16.00;67.17;99491.31;5089212;27;45405;-62
2021/10/30 10:34:21;;;;;;;;;11.75;11.75;;;;;16.01;67.04;99498.31;5094661;27;45408;-62
2021/10/30 10:36:47;;;;;;;;;4.25;4.25;;;;;15.97;67.61;99510.03;5094462;27;45372;-61
2021/10/30 10:39:22;;;;;;;;;9.00;9.00;;;;;15.92;67.36;99497.91;5087139;27;48118;-61
2021/10/30 10:41:51;;;;;;;;;6.25;5.50;;;;;15.93;67.24;99499.59;5087636;27;45259;-62
2021/10/30 10:44:22;;;;;;;;;10.25;10.25;;;;;15.95;67.28;99502.19;5092022;27;45330;-61
2021/10/30 10:46:53;;;;;;;;;5.50;5.00;;;;;15.93;67.02;99494.31;5095848;27;45184;-61
2021/10/30 10:52:14;;;;;;;;;522.75;487.00;;;;;15.91;67.62;99496.19;5082490;27;45239;-63
2021/10/30 10:55:04;;;;;;;;;252.50;244.50;;;;;15.93;67.46;99498.75;5093937;27;45275;-62
2021/10/30 10:57:50;;;;;;;;;61.80;57.20;;;;;15.90;67.94;99499.78;5090386;27;45207;-62
2021/10/30 11:00:20;;;;;;;;;17.75;17.25;;;;;15.88;67.53;99493.72;5092811;27;46253;-63
2021/10/30 11:02:49;;;;;;;;;8.75;7.50;;;;;15.88;67.88;99499.00;5093880;27;45225;-62
2021/10/30 11:05:23;;;;;;;;;5.00;4.50;;;;;15.88;67.85;99500.81;5086425;27;45430;-62
2021/10/30 11:07:48;;;;;;;;;7.25;7.25;;;;;15.89;67.61;99498.06;5098769;27;45393;-62
2021/10/30 11:10:31;;;;;;;;;10.25;8.50;;;;;15.90;67.52;99483.06;5089029;27;45353;-62
2021/10/30 11:13:04;;;;;;;;;6.75;6.75;;;;;15.91;67.53;99493.56;5086926;27;46454;-62
2021/10/30 11:15:54;;;;;;;;;6.75;6.75;;;;;15.93;67.71;99491.66;5088331;27;45249;-61
2021/10/30 11:18:25;;;;;;;;;6.75;6.50;;;;;15.93;67.90;99496.09;5088958;27;45379;-61
2021/10/30 11:23:51;;;;;;;;;5.50;5.50;;;;;15.95;68.16;99482.78;5087535;27;45523;-61
2021/10/30 11:26:19;;;;;;;;;8.00;6.25;;;;;15.99;67.74;99495.78;5094040;27;45386;-61
2021/10/30 11:28:44;;;;;;;;;5.75;5.75;;;;;15.97;68.02;99478.25;5086667;27;45502;-60
2021/10/30 11:31:16;;;;;;;;;7.00;7.00;;;;;16.01;68.00;99487.72;5091914;27;45169;-61